Time;durP1;ratioP1;P1;durP2;ratioP2;P2;SDS_P1;SDS_P2;PMS_P1;PMS_P2;Temp;Humidity;BMP_temperature;BMP_pressure;BME280_temperature;BME280_humidity;BME280_pressure;Samples;Min_cycle;Max_cycle;Signal;HPM_P1;HPM_P2
2020/12/11 00:00:06;;;;;;;;;14.33;14.33;;;;;1.16;62.04;102204.19;4373380;32;8894;-73
2020/12/11 00:03:03;;;;;;;;;14.00;14.00;;;;;1.03;62.52;102204.38;4361871;32;8918;-74
2020/12/11 00:05:31;;;;;;;;;13.00;13.00;;;;;0.98;62.57;102187.84;4374200;32;8914;-74
2020/12/11 00:07:59;;;;;;;;;9.67;9.67;;;;;0.70;63.18;102194.72;4369302;32;8930;-74
2020/12/11 00:10:54;;;;;;;;;18.33;16.67;;;;;0.75;63.35;102186.69;4357732;32;9010;-74
2020/12/11 00:13:50;;;;;;;;;15.00;15.00;;;;;0.68;63.36;102182.37;4358553;33;8968;-74
2020/12/11 00:16:32;;;;;;;;;10.00;10.00;;;;;0.75;63.28;102192.13;4359328;32;8908;-74
2020/12/11 00:19:27;;;;;;;;;15.00;13.00;;;;;0.80;62.92;102184.12;4357178;33;8975;-74
2020/12/11 00:21:59;;;;;;;;;10.00;10.00;;;;;0.86;62.58;102196.00;4345875;32;8880;-74
2020/12/11 00:24:47;;;;;;;;;12.67;10.00;;;;;0.76;62.92;102188.34;4348223;33;9023;-74
2020/12/11 00:27:43;;;;;;;;;12.33;9.00;;;;;0.69;63.20;102184.03;4348564;33;8944;-74
2020/12/11 00:30:26;;;;;;;;;12.67;12.67;;;;;0.93;62.13;102185.84;4358007;33;8916;-73
2020/12/11 00:33:23;;;;;;;;;6.00;6.00;;;;;0.81;62.48;102191.22;4357360;32;8913;-74
2020/12/11 00:35:52;;;;;;;;;10.67;10.00;;;;;0.31;63.95;102195.16;4358388;32;8896;-74
2020/12/11 00:38:48;;;;;;;;;16.67;12.33;;;;;0.66;63.00;102193.50;4367084;32;8895;-74
2020/12/11 00:41:25;;;;;;;;;8.33;8.33;;;;;0.51;63.20;102184.91;4376442;32;8902;-74
2020/12/11 00:44:07;;;;;;;;;11.33;11.33;;;;;0.41;63.50;102181.88;4374399;32;8879;-74
2020/12/11 00:47:03;;;;;;;;;10.00;10.00;;;;;0.22;64.08;102181.03;4350390;33;8905;-74
2020/12/11 00:49:59;;;;;;;;;9.00;6.33;;;;;0.42;63.61;102178.09;4359798;32;8925;-74
2020/12/11 00:52:28;;;;;;;;;7.00;7.00;;;;;0.12;64.50;102181.56;4361105;32;8908;-74
2020/12/11 00:55:24;;;;;;;;;9.33;9.33;;;;;0.30;64.02;102172.56;4359874;33;8949;-74
2020/12/11 00:57:59;;;;;;;;;12.00;12.00;;;;;0.22;64.10;102164.69;4361509;32;8982;-73
2020/12/11 01:00:26;;;;;;;;;7.00;7.00;;;;;0.38;63.57;102166.00;4375161;32;8898;-74
2020/12/11 01:03:22;;;;;;;;;10.67;10.00;;;;;0.43;63.05;102166.16;4362708;32;8990;-74
2020/12/11 01:06:00;;;;;;;;;9.00;9.00;;;;;0.60;62.60;102158.19;4375460;32;8890;-74
2020/12/11 01:08:55;;;;;;;;;15.00;15.00;;;;;0.28;63.20;102148.31;4369646;32;8937;-73
2020/12/11 01:11:51;;;;;;;;;15.33;15.00;;;;;0.16;63.91;102155.56;4374306;32;8903;-72
2020/12/11 01:14:46;;;;;;;;;18.33;16.00;;;;;0.20;63.73;102153.22;4371445;32;8891;-73
2020/12/11 01:17:42;;;;;;;;;42.00;36.67;;;;;0.15;63.83;102150.34;4360594;32;9571;-72
2020/12/11 01:20:09;;;;;;;;;17.33;16.00;;;;;0.06;63.98;102140.81;4361038;32;8971;-73
2020/12/11 01:23:06;;;;;;;;;24.33;19.67;;;;;0.11;63.74;102143.69;4359349;32;8922;-73
2020/12/11 01:26:06;;;;;;;;;18.67;18.67;;;;;0.07;63.77;102139.75;4359207;32;8922;-72
2020/12/11 01:28:35;;;;;;;;;15.67;15.67;;;;;0.08;63.90;102135.97;4360678;32;8998;-73
2020/12/11 01:31:30;;;;;;;;;11.67;10.00;;;;;0.16;63.51;102136.53;4360475;32;8917;-72
2020/12/11 01:33:58;;;;;;;;;18.67;15.67;;;;;-0.02;64.04;102131.87;4362062;32;8900;-73
2020/12/11 01:36:54;;;;;;;;;12.00;12.00;;;;;0.22;63.20;102130.16;4359167;33;8941;-73
2020/12/11 01:39:23;;;;;;;;;11.33;9.00;;;;;0.37;62.81;102134.38;4361444;32;8900;-72
2020/12/11 01:42:12;;;;;;;;;13.67;12.33;;;;;0.15;63.10;102125.84;4361157;32;8948;-73
2020/12/11 01:45:08;;;;;;;;;11.00;11.00;;;;;0.26;62.98;102125.09;4359143;32;9023;-73
2020/12/11 01:48:04;;;;;;;;;15.33;15.33;;;;;0.25;62.77;102120.72;4371557;32;9528;-73
2020/12/11 01:50:33;;;;;;;;;15.33;10.00;;;;;0.24;62.94;102121.78;4373598;32;8890;-73
2020/12/11 01:53:30;;;;;;;;;11.33;11.33;;;;;0.14;63.03;102111.41;4374192;32;8907;-73
2020/12/11 01:56:05;;;;;;;;;11.67;11.67;;;;;-0.03;63.78;102122.06;4375628;32;8918;-74
2020/12/11 01:59:04;;;;;;;;;12.67;12.00;;;;;0.04;63.67;102119.28;4373519;32;8984;-73
2020/12/11 02:02:03;;;;;;;;;15.00;12.00;;;;;0.16;63.15;102124.81;4374081;32;8923;-74
2020/12/11 02:04:48;;;;;;;;;14.33;14.33;;;;;0.01;63.22;102118.91;4360219;32;8892;-74
2020/12/11 02:07:38;;;;;;;;;12.33;12.33;;;;;-0.34;64.56;102125.72;4359609;32;8912;-74
2020/12/11 02:10:33;;;;;;;;;11.33;11.33;;;;;-0.32;64.72;102110.00;4358804;33;8921;-74
2020/12/11 02:13:29;;;;;;;;;18.00;10.67;;;;;-0.36;64.49;102108.81;4359824;32;8955;-74
2020/12/11 02:16:25;;;;;;;;;15.67;15.67;;;;;-0.19;64.32;102102.78;4361691;32;9025;-74
2020/12/11 02:19:20;;;;;;;;;10.00;10.00;;;;;-0.14;64.10;102113.84;4373597;32;8903;-74
2020/12/11 02:21:47;;;;;;;;;13.00;12.33;;;;;-0.35;64.52;102101.47;4375013;32;8898;-74
2020/12/11 02:24:43;;;;;;;;;14.67;14.67;;;;;-0.09;63.98;102097.66;4373490;32;8938;-74
2020/12/11 02:27:38;;;;;;;;;13.67;13.67;;;;;-0.13;64.00;102094.56;4373646;32;8903;-74
2020/12/11 02:30:34;;;;;;;;;26.33;23.33;;;;;-0.10;63.80;102096.81;4373498;32;8951;-74
2020/12/11 02:33:31;;;;;;;;;32.33;32.33;;;;;-0.26;64.03;102091.16;4359098;32;8885;-74
2020/12/11 02:35:58;;;;;;;;;39.00;36.67;;;;;-0.38;64.60;102081.03;4346107;33;8912;-74
2020/12/11 02:38:25;;;;;;;;;54.67;49.00;;;;;-0.44;64.89;102090.06;4359893;32;8896;-74
2020/12/11 02:40:55;;;;;;;;;51.75;48.00;;;;;-0.30;64.53;102088.06;4359862;32;8954;-74
2020/12/11 02:43:40;;;;;;;;;47.00;42.75;;;;;-0.34;64.46;102087.66;4359293;32;8966;-74
2020/12/11 02:46:36;;;;;;;;;52.50;48.00;;;;;-0.47;64.79;102085.06;4358213;33;8897;-74
2020/12/11 02:49:03;;;;;;;;;63.50;52.50;;;;;-0.55;64.76;102090.78;4360170;32;8892;-74
2020/12/11 02:51:58;;;;;;;;;70.75;60.50;;;;;-0.52;64.97;102089.53;4358476;32;8959;-74
2020/12/11 02:54:54;;;;;;;;;83.75;65.00;;;;;-0.47;64.85;102090.50;4358145;33;9694;-75
2020/12/11 02:57:51;;;;;;;;;73.50;60.75;;;;;-0.62;65.13;102079.97;4356385;32;8918;-75
2020/12/11 03:00:46;;;;;;;;;76.50;58.50;;;;;-0.70;65.36;102071.25;4343299;33;8943;-75
2020/12/11 03:03:42;;;;;;;;;69.00;57.75;;;;;-0.77;65.20;102060.44;4352385;32;8917;-75
2020/12/11 03:06:11;;;;;;;;;77.00;59.50;;;;;-0.88;65.68;102069.34;4344068;33;8916;-75
2020/12/11 03:09:06;;;;;;;;;76.25;62.50;;;;;-0.95;65.99;102053.09;4343145;33;9593;-75
2020/12/11 03:12:02;;;;;;;;;58.00;51.75;;;;;-0.75;65.06;102060.25;4345625;33;9673;-75
2020/12/11 03:14:57;;;;;;;;;74.75;63.25;;;;;-0.91;65.54;102051.59;4352992;32;8921;-75
2020/12/11 03:17:53;;;;;;;;;72.00;61.50;;;;;-1.00;65.75;102046.63;4343515;33;8925;-75
2020/12/11 03:20:50;;;;;;;;;80.50;64.50;;;;;-0.79;65.54;102042.72;4342976;33;8945;-75
2020/12/11 03:23:49;;;;;;;;;71.50;60.00;;;;;-0.93;65.57;102029.25;4343115;33;8967;-75
2020/12/11 03:26:18;;;;;;;;;71.00;58.50;;;;;-0.65;64.68;102036.13;4343901;33;8930;-75
2020/12/11 03:29:14;;;;;;;;;67.75;57.00;;;;;-0.97;65.63;102028.03;4325411;33;8921;-76
2020/12/11 03:31:45;;;;;;;;;68.25;58.50;;;;;-1.24;66.70;102032.00;4344985;32;8943;-75
2020/12/11 03:34:13;;;;;;;;;68.75;57.50;;;;;-0.86;65.48;102029.19;4345042;32;8934;-75
2020/12/11 03:36:41;;;;;;;;;63.75;54.00;;;;;-0.93;65.79;102042.00;4345078;33;8924;-75
2020/12/11 03:39:37;;;;;;;;;74.50;59.50;;;;;-1.17;66.06;102030.06;4342625;33;8925;-75
2020/12/11 03:42:33;;;;;;;;;78.50;63.00;;;;;-1.15;66.36;102042.38;4343397;33;8991;-76
2020/12/11 03:45:32;;;;;;;;;79.25;64.50;;;;;-0.95;65.72;102041.38;4326711;33;8913;-75
2020/12/11 03:47:59;;;;;;;;;59.00;49.00;;;;;-1.07;66.01;102052.16;4344856;33;9588;-75
2020/12/11 03:50:56;;;;;;;;;46.00;45.25;;;;;-0.94;65.78;102051.19;4343155;33;9633;-74
2020/12/11 03:53:52;;;;;;;;;36.50;32.00;;;;;-1.12;66.04;102052.78;4342780;33;8967;-75
2020/12/11 03:56:20;;;;;;;;;34.00;29.67;;;;;-1.09;65.75;102045.25;4344575;33;9603;-75
2020/12/11 03:59:16;;;;;;;;;33.50;33.50;;;;;-1.37;66.87;102037.53;4352125;32;8979;-75
2020/12/11 04:02:12;;;;;;;;;28.67;27.67;;;;;-1.29;66.65;102040.81;4358309;32;8914;-75
2020/12/11 04:04:48;;;;;;;;;32.00;30.67;;;;;-1.35;66.85;102043.56;4372155;32;9597;-76
2020/12/11 04:07:45;;;;;;;;;22.67;22.33;;;;;-1.36;67.00;102044.63;4372804;32;8982;-75
2020/12/11 04:10:16;;;;;;;;;28.00;27.67;;;;;-1.27;66.63;102035.16;4374102;32;9543;-75
2020/12/11 04:13:06;;;;;;;;;27.00;26.33;;;;;-1.20;66.76;102044.91;4377186;32;8906;-75
2020/12/11 04:16:02;;;;;;;;;39.50;34.25;;;;;-1.22;66.52;102036.16;4375629;32;8982;-75
2020/12/11 04:18:58;;;;;;;;;43.00;38.75;;;;;-1.10;66.16;102039.00;4375338;32;9042;-75
2020/12/11 04:21:39;;;;;;;;;41.50;39.50;;;;;-1.26;66.53;102034.09;4375334;32;8926;-75
2020/12/11 04:24:22;;;;;;;;;51.50;47.50;;;;;-0.90;65.67;102033.41;4371722;32;8896;-75
2020/12/11 04:27:18;;;;;;;;;62.00;51.75;;;;;-1.10;66.33;102027.31;4360917;32;8906;-75
2020/12/11 04:30:14;;;;;;;;;41.00;39.50;;;;;-1.01;65.81;102034.94;4351644;32;9562;-77
2020/12/11 04:33:09;;;;;;;;;64.00;50.75;;;;;-0.98;65.79;102029.09;4353262;32;8892;-75
2020/12/11 04:36:05;;;;;;;;;48.25;44.00;;;;;-0.92;65.25;102028.22;4375156;32;8931;-75
2020/12/11 04:38:47;;;;;;;;;44.50;43.75;;;;;-1.21;66.34;102028.84;4376018;32;8890;-75
2020/12/11 04:41:44;;;;;;;;;53.00;47.00;;;;;-0.94;65.68;102035.72;4373536;32;9634;-76
2020/12/11 04:44:13;;;;;;;;;36.75;36.00;;;;;-1.07;65.85;102035.00;4375766;32;9736;-76
2020/12/11 04:46:40;;;;;;;;;47.75;44.75;;;;;-1.13;65.97;102037.56;4376461;32;8925;-75
2020/12/11 04:49:09;;;;;;;;;50.75;47.50;;;;;-0.88;65.41;102040.28;4374068;32;8906;-76
2020/12/11 04:52:05;;;;;;;;;65.00;53.00;;;;;-0.89;65.22;102038.62;4374783;32;8946;-76
2020/12/11 04:55:02;;;;;;;;;60.75;50.50;;;;;-0.85;64.78;102037.09;4374419;32;8903;-76
2020/12/11 04:58:04;;;;;;;;;56.25;46.00;;;;;-0.90;65.09;102047.81;4365139;32;8923;-76
2020/12/11 05:01:04;;;;;;;;;68.25;56.50;;;;;-1.01;65.56;102042.28;4374777;32;9030;-76
2020/12/11 05:03:45;;;;;;;;;62.75;48.75;;;;;-1.16;65.88;102029.00;4365568;32;8900;-76
2020/12/11 05:06:15;;;;;;;;;56.25;46.00;;;;;-1.02;65.47;102025.16;4360930;32;8896;-76
2020/12/11 05:09:16;;;;;;;;;66.25;55.00;;;;;-0.98;65.48;102018.22;4361459;32;8935;-76
2020/12/11 05:11:46;;;;;;;;;42.50;39.25;;;;;-0.95;65.64;102011.50;4360870;32;9033;-76
2020/12/11 05:14:22;;;;;;;;;77.25;60.75;;;;;-1.41;67.16;102010.81;4362027;32;8904;-76
2020/12/11 05:17:17;;;;;;;;;41.50;40.00;;;;;-1.29;66.94;102013.66;4363030;32;8903;-77
2020/12/11 05:19:51;;;;;;;;;51.75;47.50;;;;;-1.35;67.14;102002.84;4376010;32;8928;-76
2020/12/11 05:22:21;;;;;;;;;40.75;36.25;;;;;-1.05;66.48;102020.16;4349671;32;9040;-76
2020/12/11 05:24:53;;;;;;;;;56.00;47.75;;;;;-1.23;67.26;102014.66;4361367;32;9563;-76
2020/12/11 05:27:48;;;;;;;;;56.75;48.25;;;;;-1.15;66.67;102011.66;4372412;32;8899;-76
2020/12/11 05:30:16;;;;;;;;;47.25;42.75;;;;;-1.08;66.78;102009.72;4361774;32;8891;-78
2020/12/11 05:33:17;;;;;;;;;39.50;39.00;;;;;-0.78;65.81;102003.63;4352150;32;8909;-78
2020/12/11 05:36:13;;;;;;;;;59.75;47.25;;;;;-1.04;66.28;102012.84;4360539;32;8998;-78
2020/12/11 05:38:46;;;;;;;;;40.67;40.67;;;;;-0.76;65.76;102001.53;4347543;33;8904;-79
2020/12/11 05:41:31;;;;;;;;;36.67;33.67;;;;;-0.92;66.20;102003.78;4361016;32;8919;-78
2020/12/11 05:44:31;;;;;;;;;41.50;41.50;;;;;-1.10;66.93;102006.41;4364087;32;8946;-78
2020/12/11 05:47:16;;;;;;;;;26.33;25.67;;;;;-1.02;66.77;102006.13;4374690;32;8882;-78
2020/12/11 05:49:43;;;;;;;;;37.00;34.00;;;;;-0.99;66.95;101999.44;4375803;32;8890;-78
2020/12/11 05:52:13;;;;;;;;;28.33;25.67;;;;;-1.12;67.43;102006.63;4363132;32;8906;-76
2020/12/11 05:54:57;;;;;;;;;33.67;27.00;;;;;-0.87;66.90;102001.19;4373273;32;9600;-77
2020/12/11 05:57:27;;;;;;;;;26.33;26.33;;;;;-1.03;67.31;101996.34;4342302;33;8908;-77
2020/12/11 05:59:55;;;;;;;;;21.33;21.00;;;;;-0.82;66.74;102000.53;4359651;32;8974;-76
2020/12/11 06:02:25;;;;;;;;;23.67;22.67;;;;;-1.05;67.54;102008.47;4346519;33;8905;-76
2020/12/11 06:04:56;;;;;;;;;26.33;24.33;;;;;-0.86;67.25;102004.75;4346851;33;8901;-76
2020/12/11 06:07:25;;;;;;;;;40.00;37.67;;;;;-0.81;67.13;101998.66;4360704;32;9001;-76
2020/12/11 06:10:23;;;;;;;;;28.67;27.33;;;;;-0.86;67.01;101997.41;4353444;32;9002;-76
2020/12/11 06:13:48;;;;;;;;;23.00;22.00;;;;;-0.46;66.22;101996.19;4372736;32;9536;-76
2020/12/11 06:16:22;;;;;;;;;16.00;16.00;;;;;-0.34;65.50;101995.22;4356371;33;8908;-75
2020/12/11 06:19:00;;;;;;;;;23.33;21.67;;;;;-0.39;66.04;101994.22;4358365;32;9031;-76
2020/12/11 06:21:43;;;;;;;;;21.67;21.67;;;;;-0.20;65.53;102000.53;4371103;32;8891;-77
2020/12/11 06:24:33;;;;;;;;;18.33;17.33;;;;;0.06;64.82;101996.63;4374254;32;8902;-77
2020/12/11 06:27:32;;;;;;;;;20.33;19.00;;;;;-0.21;65.86;101991.53;4372410;32;8888;-75
2020/12/11 06:30:29;;;;;;;;;20.33;20.33;;;;;-0.02;65.49;101984.16;4362484;32;8895;-76
2020/12/11 06:33:29;;;;;;;;;20.33;20.33;;;;;0.20;64.70;101985.34;4338073;32;9003;-77
2020/12/11 06:36:25;;;;;;;;;23.33;20.33;;;;;0.06;65.31;101986.56;4372211;32;8962;-77
2020/12/11 06:39:39;;;;;;;;;15.67;14.67;;;;;0.11;65.02;101985.91;4348443;33;9641;-77
2020/12/11 06:42:35;;;;;;;;;17.33;15.00;;;;;0.31;65.02;101978.31;4358221;32;9609;-79
2020/12/11 06:45:31;;;;;;;;;22.33;22.00;;;;;0.43;64.55;101986.50;4357796;32;8913;-76
2020/12/11 06:48:27;;;;;;;;;27.33;23.67;;;;;0.51;64.56;101983.44;4364183;32;8907;-75
2020/12/11 06:51:22;;;;;;;;;19.00;19.00;;;;;0.70;63.92;101984.22;4370431;32;8895;-76
2020/12/11 06:55:51;;;;;;;;;27.67;27.67;;;;;1.55;62.21;101978.31;4071926;31;12706356;-75
2020/12/11 06:58:19;;;;;;;;;29.33;23.67;;;;;1.55;62.21;101978.31;4446765;32;8898;-75
2020/12/11 07:00:56;;;;;;;;;30.67;27.67;;;;;0.94;63.59;101985.91;4447029;32;8906;-75
2020/12/11 07:03:53;;;;;;;;;22.33;22.00;;;;;1.29;62.65;101977.72;4445821;32;8940;-76
2020/12/11 07:06:21;;;;;;;;;15.33;15.33;;;;;1.46;62.21;101964.22;4446765;32;9653;-74
2020/12/11 07:08:48;;;;;;;;;19.00;19.00;;;;;1.39;62.51;101958.91;4447230;32;8902;-76
2020/12/11 07:11:20;;;;;;;;;19.67;19.67;;;;;1.66;61.71;101958.38;4447454;32;9630;-76
2020/12/11 07:13:51;;;;;;;;;25.67;25.67;;;;;1.26;62.85;101944.69;4446638;32;8910;-75
2020/12/11 07:16:51;;;;;;;;;20.33;19.00;;;;;1.74;61.92;101957.16;4440439;32;8956;-76
2020/12/11 07:19:19;;;;;;;;;19.67;17.67;;;;;1.51;62.30;101956.16;4445914;32;8863;-76
2020/12/11 07:22:19;;;;;;;;;16.00;16.00;;;;;2.08;61.05;101958.16;4431849;32;8895;-76
2020/12/11 07:25:17;;;;;;;;;13.00;13.00;;;;;2.18;60.68;101961.06;4429852;32;8963;-75
2020/12/11 07:28:00;;;;;;;;;19.67;19.33;;;;;2.25;60.31;101955.47;4435890;32;8885;-76
2020/12/11 07:30:56;;;;;;;;;30.00;29.33;;;;;2.40;59.96;101948.37;4443971;32;8953;-75
2020/12/11 07:33:29;;;;;;;;;26.67;25.00;;;;;2.32;60.38;101935.13;4437667;32;8859;-76
2020/12/11 07:35:59;;;;;;;;;17.33;16.00;;;;;2.53;59.73;101933.59;4436992;32;8882;-74
2020/12/11 07:38:27;;;;;;;;;17.00;17.00;;;;;2.52;59.94;101937.38;4442768;32;8867;-75
2020/12/11 07:41:23;;;;;;;;;24.00;21.67;;;;;2.49;59.31;101937.88;4440154;32;8868;-75
2020/12/11 07:43:50;;;;;;;;;21.67;21.67;;;;;2.85;58.78;101939.31;4446284;32;8905;-75
2020/12/11 07:46:22;;;;;;;;;17.00;17.00;;;;;3.00;58.36;101939.53;4444732;32;12334;-75
2020/12/11 07:48:51;;;;;;;;;16.33;14.33;;;;;2.99;58.41;101932.44;4444897;32;12304;-74
2020/12/11 07:51:48;;;;;;;;;17.33;16.33;;;;;2.94;58.40;101926.06;4443405;32;8943;-75
2020/12/11 07:54:17;;;;;;;;;18.00;15.67;;;;;3.05;58.27;101928.66;4445933;32;8921;-74
2020/12/11 07:57:14;;;;;;;;;15.67;15.67;;;;;3.16;57.37;101926.94;4440931;32;12376;-74
2020/12/11 08:00:10;;;;;;;;;13.00;8.67;;;;;3.05;58.09;101923.22;4445074;32;12924;-73
2020/12/11 08:03:06;;;;;;;;;16.25;16.25;;;;;3.24;57.54;101917.47;4444541;32;12270;-73
2020/12/11 08:06:09;;;;;;;;;18.00;15.00;;;;;3.31;57.23;101907.19;4437217;32;12287;-73
2020/12/11 08:08:39;;;;;;;;;16.75;16.00;;;;;3.40;56.91;101899.38;4426898;32;12379;-74
2020/12/11 08:11:26;;;;;;;;;14.75;14.75;;;;;3.91;55.70;101903.56;4433209;32;12314;-74
2020/12/11 08:14:23;;;;;;;;;18.00;18.00;;;;;4.18;55.04;101896.16;4433708;32;12295;-75
2020/12/11 08:17:07;;;;;;;;;22.00;22.00;;;;;4.35;54.78;101900.69;4425946;32;12303;-75
2020/12/11 08:19:35;;;;;;;;;17.25;17.25;;;;;4.36;54.34;101896.88;4433020;32;12315;-75
2020/12/11 08:22:15;;;;;;;;;23.00;23.00;;;;;4.52;54.03;101901.41;4434559;32;12297;-75
2020/12/11 08:24:43;;;;;;;;;28.25;27.00;;;;;4.83;53.50;101899.75;4433708;32;12346;-74
2020/12/11 08:27:28;;;;;;;;;41.50;36.50;;;;;4.81;53.37;101895.59;4421626;32;12424;-75
2020/12/11 08:30:35;;;;;;;;;26.75;25.25;;;;;4.89;52.97;101884.97;4420052;32;12490;-74
2020/12/11 08:33:31;;;;;;;;;22.00;21.00;;;;;5.16;52.58;101887.63;4432244;32;12355;-74
2020/12/11 08:36:29;;;;;;;;;18.00;17.00;;;;;4.87;52.80;101880.84;4433325;32;12364;-75
2020/12/11 08:39:25;;;;;;;;;22.50;20.50;;;;;5.07;52.57;101886.47;4435021;32;12384;-75
2020/12/11 08:42:27;;;;;;;;;13.50;13.00;;;;;5.10;52.59;101887.84;4430464;32;12359;-79
2020/12/11 08:45:33;;;;;;;;;20.00;18.75;;;;;4.89;52.32;101882.22;4433768;32;12435;-74
2020/12/11 08:48:36;;;;;;;;;24.75;23.50;;;;;5.22;51.88;101864.63;4433476;32;12320;-76
2020/12/11 08:51:07;;;;;;;;;9.75;9.75;;;;;5.37;51.91;101869.38;4422881;32;12393;-74
2020/12/11 08:54:35;;;;;;;;;16.75;16.75;;;;;5.68;50.84;101880.47;4433466;32;12311;-74
2020/12/11 08:57:32;;;;;;;;;22.50;20.00;;;;;5.37;51.63;101876.75;4435071;32;12510;-73
2020/12/11 09:00:14;;;;;;;;;22.25;20.00;;;;;5.69;51.46;101871.97;4434389;32;12292;-78
2020/12/11 09:03:09;;;;;;;;;29.75;29.50;;;;;5.79;51.51;101857.44;4433494;32;12403;-74
2020/12/11 09:06:01;;;;;;;;;22.75;22.75;;;;;6.15;50.53;101861.13;4434559;32;12420;-73
2020/12/11 09:08:29;;;;;;;;;20.25;20.25;;;;;6.11;51.06;101866.31;4434070;32;12352;-74
2020/12/11 09:11:15;;;;;;;;;17.25;17.25;;;;;6.26;49.80;101854.53;4434898;32;13046;-71
2020/12/11 09:14:11;;;;;;;;;21.50;20.75;;;;;6.20;49.85;101861.09;4434274;32;12356;-71
2020/12/11 09:16:39;;;;;;;;;20.25;19.50;;;;;6.29;49.62;101853.16;4435652;32;12320;-75
2020/12/11 09:19:35;;;;;;;;;17.25;17.25;;;;;6.62;49.19;101844.38;4418680;32;12338;-73
2020/12/11 09:22:33;;;;;;;;;18.75;16.25;;;;;6.61;49.02;101845.47;4418472;32;12422;-74
2020/12/11 09:25:29;;;;;;;;;13.75;13.75;;;;;6.57;48.94;101847.09;4422613;32;13078;-73
2020/12/11 09:28:25;;;;;;;;;17.00;16.25;;;;;6.20;50.17;101830.06;4433511;32;12371;-72
2020/12/11 09:30:53;;;;;;;;;58.75;38.25;;;;;6.22;49.60;101812.22;4435377;32;12410;-73
2020/12/11 09:33:49;;;;;;;;;14.50;14.50;;;;;6.82;48.87;101809.69;4432969;32;13091;-73
2020/12/11 09:36:46;;;;;;;;;15.25;13.75;;;;;6.52;49.17;101816.91;4433422;32;12301;-73
2020/12/11 09:39:14;;;;;;;;;15.50;15.25;;;;;6.70;48.35;101807.25;4434811;32;12287;-74
2020/12/11 09:45:28;;;;;;;;;14.00;14.00;;;;;6.73;48.59;101797.59;4424537;32;12256;-75
2020/12/11 09:48:23;;;;;;;;;9.50;9.50;;;;;6.97;47.77;101807.72;4421147;32;12324;-73
2020/12/11 09:54:35;;;;;;;;;21.50;15.25;;;;;6.41;49.12;101788.56;4418970;32;12324;-73
2020/12/11 09:57:31;;;;;;;;;10.25;9.75;;;;;6.78;48.75;101792.94;4433766;32;12371;-74
2020/12/11 10:00:28;;;;;;;;;13.50;13.50;;;;;7.03;48.15;101783.78;4432214;32;12306;-73
2020/12/11 10:03:03;;;;;;;;;16.00;16.00;;;;;7.30;47.46;101774.31;4435094;32;12306;-73
2020/12/11 10:05:38;;;;;;;;;25.25;25.25;;;;;7.74;46.51;101777.94;4434376;32;12330;-74
2020/12/11 10:08:35;;;;;;;;;17.50;16.00;;;;;7.95;46.43;101778.59;4433967;32;12388;-74
2020/12/11 10:11:30;;;;;;;;;12.00;11.25;;;;;8.15;45.83;101788.66;4433721;32;13318;-73
2020/12/11 10:14:30;;;;;;;;;17.75;17.75;;;;;8.23;45.21;101790.78;4432808;32;12466;-73
2020/12/11 10:16:59;;;;;;;;;17.75;14.75;;;;;8.26;45.22;101781.09;4434164;32;13017;-74
2020/12/11 10:19:29;;;;;;;;;19.50;19.50;;;;;8.13;45.31;101773.50;4433988;32;12359;-73
2020/12/11 10:22:25;;;;;;;;;18.75;16.25;;;;;8.42;44.30;101759.78;4433002;32;12428;-72
2020/12/11 10:25:16;;;;;;;;;20.00;20.00;;;;;8.68;44.27;101755.66;4418168;32;12371;-73
2020/12/11 10:28:12;;;;;;;;;17.50;15.00;;;;;8.52;44.19;101755.00;4423307;32;12317;-73
2020/12/11 10:31:08;;;;;;;;;13.00;13.00;;;;;8.81;43.72;101749.41;4433061;32;12401;-73
2020/12/11 10:34:03;;;;;;;;;13.00;13.00;;;;;8.64;43.95;101747.12;4432775;32;12416;-73
2020/12/11 10:37:00;;;;;;;;;14.25;13.25;;;;;8.37;44.11;101743.28;4433210;32;12349;-73
2020/12/11 10:39:57;;;;;;;;;15.50;13.75;;;;;8.55;43.78;101745.31;4432932;32;12361;-74
2020/12/11 10:42:58;;;;;;;;;15.00;15.00;;;;;8.59;44.16;101740.88;4433561;32;12967;-73
2020/12/11 10:45:54;;;;;;;;;21.50;20.50;;;;;8.51;43.99;101742.31;4424177;32;12382;-73
2020/12/11 10:48:22;;;;;;;;;15.50;15.50;;;;;8.46;43.77;101747.06;4423106;32;12336;-73
2020/12/11 10:51:19;;;;;;;;;6.75;6.75;;;;;8.52;43.67;101732.94;4418267;32;12428;-74
2020/12/11 10:54:17;;;;;;;;;13.75;13.25;;;;;8.61;43.31;101744.97;4409008;32;12321;-74
2020/12/11 10:56:50;;;;;;;;;11.50;11.50;;;;;8.16;44.17;101726.91;4432171;32;12501;-74
2020/12/11 10:59:45;;;;;;;;;19.00;18.25;;;;;8.78;43.41;101729.88;4433129;32;12316;-74
2020/12/11 11:02:42;;;;;;;;;20.75;20.75;;;;;8.37;43.61;101726.75;4433294;32;12377;-73
2020/12/11 11:05:40;;;;;;;;;28.00;19.25;;;;;8.11;43.83;101726.94;4432940;32;12442;-74
2020/12/11 11:09:00;;;;;;;;;16.00;16.00;;;;;8.75;43.43;101733.25;4432801;32;12317;-74
2020/12/11 11:15:14;;;;;;;;;12.50;12.50;;;;;9.30;41.63;101715.16;4430369;32;12325;-73
2020/12/11 11:27:03;;;;;;;;;11.00;11.00;;;;;9.26;41.64;101724.31;4432985;32;12325;-72
2020/12/11 11:29:32;;;;;;;;;17.25;16.50;;;;;9.02;42.15;101716.91;4417905;32;12324;-73
2020/12/11 11:32:22;;;;;;;;;13.75;13.75;;;;;9.05;42.12;101705.28;4418825;32;12477;-74
2020/12/11 11:35:18;;;;;;;;;18.50;17.75;;;;;8.84;42.50;101701.94;4416451;32;12340;-74
2020/12/11 11:37:46;;;;;;;;;15.75;15.50;;;;;8.84;42.78;101712.16;4423816;32;12397;-73
2020/12/11 11:40:41;;;;;;;;;21.25;21.00;;;;;8.20;43.72;101707.84;4433743;32;12419;-73
2020/12/11 11:43:52;;;;;;;;;7.00;7.00;;;;;8.58;43.55;101700.59;4435387;32;12385;-73
2020/12/11 11:46:51;;;;;;;;;34.00;34.00;;;;;8.54;43.82;101700.38;4420606;32;12360;-73
2020/12/11 11:52:55;;;;;;;;;27.25;25.75;;;;;8.66;43.65;101704.66;4435038;32;12410;-73
2020/12/11 11:55:53;;;;;;;;;28.00;25.00;;;;;8.36;44.22;101703.88;4432730;32;12348;-73
2020/12/11 11:58:40;;;;;;;;;21.50;21.50;;;;;8.26;44.39;101713.03;4434420;32;12369;-73
2020/12/11 12:01:37;;;;;;;;;15.25;15.25;;;;;8.24;44.57;101708.94;4431744;32;12320;-73
2020/12/11 12:04:33;;;;;;;;;10.50;10.00;;;;;8.19;44.37;101709.78;4433800;32;12412;-73
2020/12/11 12:07:08;;;;;;;;;11.75;11.75;;;;;8.23;44.40;101718.31;4434627;32;12286;-74
2020/12/11 12:09:50;;;;;;;;;14.00;14.00;;;;;8.07;44.69;101712.13;4433084;32;12404;-73
2020/12/11 12:12:22;;;;;;;;;13.50;12.00;;;;;7.76;45.27;101728.87;4434980;32;12391;-73
2020/12/11 12:14:52;;;;;;;;;12.75;11.75;;;;;8.17;44.56;101739.56;4416577;32;12362;-74
2020/12/11 12:18:01;;;;;;;;;11.00;11.00;;;;;8.13;44.73;101740.44;4432586;32;12262;-73
2020/12/11 12:21:05;;;;;;;;;11.00;11.00;;;;;7.79;45.38;101744.00;4433136;32;12507;-72
2020/12/11 12:29:38;;;;;;;;;9.50;9.50;;;;;7.64;45.75;101744.12;4426365;32;12949;-72
2020/12/11 12:32:59;;;;;;;;;18.25;18.25;;;;;7.37;46.38;101750.88;4433219;32;13081;-73
2020/12/11 12:39:12;;;;;;;;;25.50;24.50;;;;;7.27;46.88;101753.69;4434064;32;13031;-72
2020/12/11 12:44:51;;;;;;;;;12.75;12.00;;;;;6.48;48.57;101746.25;4432127;32;12431;-73
2020/12/11 12:47:20;;;;;;;;;17.75;15.25;;;;;6.65;48.29;101742.09;4433924;32;12347;-72
2020/12/11 12:50:16;;;;;;;;;17.25;17.25;;;;;6.21;49.47;101741.06;4433502;32;12369;-73
2020/12/11 12:53:11;;;;;;;;;17.25;17.25;;;;;6.37;49.03;101745.47;4431848;32;12405;-74
2020/12/11 12:55:46;;;;;;;;;15.25;15.25;;;;;6.16;49.60;101750.12;4431676;32;12349;-73
2020/12/11 12:58:20;;;;;;;;;16.25;14.75;;;;;6.38;49.19;101741.59;4433947;32;12300;-73
2020/12/11 13:01:29;;;;;;;;;13.50;13.50;;;;;6.17;49.86;101742.72;4434736;32;12339;-72
2020/12/11 13:06:31;;;;;;;;;14.50;14.50;;;;;5.91;50.84;101741.91;4434854;32;13089;-74
2020/12/11 13:09:27;;;;;;;;;16.75;15.50;;;;;6.03;50.49;101746.00;4434787;32;12360;-73
2020/12/11 13:12:24;;;;;;;;;11.50;11.50;;;;;6.00;50.51;101743.81;4433317;32;12407;-73
2020/12/11 13:15:19;;;;;;;;;12.00;12.00;;;;;6.05;50.31;101741.06;4419604;32;12320;-74
2020/12/11 13:17:47;;;;;;;;;8.50;8.50;;;;;5.73;51.14;101743.22;4425817;32;12386;-73
2020/12/11 13:20:45;;;;;;;;;15.50;14.50;;;;;5.92;50.87;101749.88;4434193;32;12456;-74
2020/12/11 13:28:33;;;;;;;;;20.50;20.50;;;;;5.63;51.66;101757.75;4414795;32;12402;-73
2020/12/11 13:31:01;;;;;;;;;15.00;15.00;;;;;5.55;51.95;101753.62;4428165;32;12320;-73
2020/12/11 13:33:58;;;;;;;;;21.00;21.00;;;;;5.73;51.73;101751.44;4433852;32;12981;-73